Time;durP1;ratioP1;P1;durP2;ratioP2;P2;SDS_P1;SDS_P2;PMS_P1;PMS_P2;Temp;Humidity;BMP_temperature;BMP_pressure;BME280_temperature;BME280_humidity;BME280_pressure;Samples;Min_cycle;Max_cycle;Signal;HPM_P1;HPM_P2
2022/08/23 00:00:37;;;;;;;23.08;17.08;;;;;;;19.27;96.69;97059.97;10285666;28;20057;-56
2022/08/23 00:05:36;;;;;;;23.92;16.60;;;;;;;19.00;97.57;97043.69;10288389;28;20073;-56
2022/08/23 00:10:35;;;;;;;27.15;18.02;;;;;;;18.85;98.07;97062.78;10287774;28;20111;-56
2022/08/23 00:15:34;;;;;;;25.92;16.75;;;;;;;18.85;98.26;97071.53;10287548;28;20026;-56
2022/08/23 00:20:33;;;;;;;26.60;18.27;;;;;;;18.92;98.16;97090.50;10288042;28;20080;-56
2022/08/23 00:25:32;;;;;;;28.30;18.83;;;;;;;18.96;98.47;97077.16;10292850;28;20065;-56
2022/08/23 00:30:32;;;;;;;26.60;17.42;;;;;;;18.89;99.00;97080.16;10291973;28;20063;-56
2022/08/23 00:35:31;;;;;;;25.75;16.65;;;;;;;18.92;99.11;97095.78;10275341;28;20078;-56
2022/08/23 00:40:29;;;;;;;25.75;17.88;;;;;;;19.00;99.30;97104.19;10254608;28;20459;-56
2022/08/23 00:51:14;;;;;;;26.42;18.25;;;;;;;19.12;99.86;97089.63;10254647;28;20464;-56
2022/08/23 00:56:17;;;;;;;30.98;19.67;;;;;;;19.17;100.00;97092.88;10253812;28;20325;-56
2022/08/23 01:01:16;;;;;;;27.38;18.02;;;;;;;19.09;100.00;97085.34;10259136;28;20061;-57
2022/08/23 01:06:22;;;;;;;29.25;19.13;;;;;;;19.03;100.00;97086.47;10293842;28;20499;-57
2022/08/23 01:11:31;;;;;;;31.92;18.77;;;;;;;19.00;100.00;97084.00;10293479;28;20068;-57
2022/08/23 01:16:55;;;;;;;30.83;18.65;;;;;;;18.90;100.00;97092.34;10293222;28;20518;-57
2022/08/23 01:22:08;;;;;;;35.05;19.75;;;;;;;18.77;100.00;97086.81;10292186;28;20070;-58
2022/08/23 01:27:10;;;;;;;35.75;21.33;;;;;;;18.65;100.00;97093.44;10292538;28;20065;-57
2022/08/23 01:32:11;;;;;;;35.83;21.23;;;;;;;18.61;100.00;97086.59;10290611;28;20080;-58
2022/08/23 01:37:10;;;;;;;37.58;22.27;;;;;;;18.55;100.00;97095.59;10291132;28;20084;-57
2022/08/23 01:42:09;;;;;;;35.08;22.75;;;;;;;18.42;100.00;97097.06;10292336;28;20096;-56
2022/08/23 01:47:08;;;;;;;32.55;20.33;;;;;;;18.11;100.00;97093.09;10291376;28;20077;-57
2022/08/23 01:52:07;;;;;;;31.85;20.67;;;;;;;17.95;100.00;97089.41;10292426;28;20029;-56
2022/08/23 01:57:07;;;;;;;32.97;20.17;;;;;;;17.95;100.00;97089.41;10291155;28;20093;-56
2022/08/23 02:02:06;;;;;;;35.63;20.85;;;;;;;17.85;100.00;97095.97;10291291;28;20068;-56
2022/08/23 02:07:05;;;;;;;33.65;21.10;;;;;;;17.94;100.00;97103.44;10289516;28;20077;-56
2022/08/23 02:12:05;;;;;;;37.28;22.02;;;;;;;17.97;100.00;97091.03;10291118;28;20041;-56
2022/08/23 02:17:04;;;;;;;40.40;22.13;;;;;;;18.03;100.00;97110.94;10290805;28;20558;-56
2022/08/23 02:22:04;;;;;;;39.63;23.25;;;;;;;18.06;100.00;97109.94;10290850;28;20073;-56
2022/08/23 02:27:04;;;;;;;47.95;24.77;;;;;;;18.08;100.00;97114.25;10289663;28;20065;-56
2022/08/23 02:32:03;;;;;;;46.13;26.45;;;;;;;18.15;100.00;97099.94;10290429;28;20065;-56
2022/08/23 02:37:03;;;;;;;49.50;26.27;;;;;;;18.14;100.00;97102.63;10286891;28;20085;-56
2022/08/23 02:42:02;;;;;;;45.47;25.50;;;;;;;18.18;100.00;97098.97;10290144;28;20065;-56
2022/08/23 02:47:02;;;;;;;54.90;26.92;;;;;;;18.19;100.00;97112.00;10288904;28;20534;-56
2022/08/23 02:52:01;;;;;;;49.72;26.10;;;;;;;18.14;100.00;97100.84;10289616;28;20513;-56
2022/08/23 02:57:01;;;;;;;51.50;26.45;;;;;;;18.12;100.00;97092.16;10290067;28;20084;-56
2022/08/23 03:02:00;;;;;;;51.10;27.10;;;;;;;18.05;100.00;97095.97;10290095;28;20471;-56
2022/08/23 03:06:59;;;;;;;54.20;29.85;;;;;;;18.03;100.00;97095.19;10286297;28;20069;-56
2022/08/23 03:11:58;;;;;;;54.65;27.42;;;;;;;17.99;100.00;97080.50;10289166;28;20037;-57
2022/08/23 03:16:57;;;;;;;60.22;27.52;;;;;;;17.90;100.00;97099.25;10288895;28;20040;-57
2022/08/23 03:21:56;;;;;;;54.10;27.88;;;;;;;17.95;100.00;97099.91;10288603;28;20034;-57
2022/08/23 03:26:55;;;;;;;57.38;26.88;;;;;;;17.94;100.00;97095.56;10287782;28;20361;-57
2022/08/23 03:31:54;;;;;;;57.83;27.65;;;;;;;18.06;100.00;97110.81;10289057;28;20418;-57
2022/08/23 03:36:53;;;;;;;54.45;27.25;;;;;;;18.12;100.00;97105.31;10269465;28;20053;-57
2022/08/23 03:41:52;;;;;;;57.15;27.13;;;;;;;18.12;100.00;97094.78;10288752;28;20077;-57
2022/08/23 03:46:51;;;;;;;52.72;27.27;;;;;;;18.05;100.00;97109.09;10287493;28;20034;-57
2022/08/23 03:51:50;;;;;;;50.83;25.65;;;;;;;17.85;100.00;97120.44;10287972;28;20047;-57
2022/08/23 03:57:04;;;;;;;44.22;22.98;;;;;;;17.86;100.00;97130.00;10289364;28;20081;-58
2022/08/23 04:02:04;;;;;;;36.03;19.63;;;;;;;17.84;100.00;97134.44;10296347;28;20062;-58
2022/08/23 04:07:03;;;;;;;36.72;18.45;;;;;;;17.80;100.00;97134.63;10292565;28;20057;-58
2022/08/23 04:12:02;;;;;;;29.60;18.70;;;;;;;17.77;100.00;97140.88;10295167;28;20065;-58
2022/08/23 04:17:01;;;;;;;28.85;17.45;;;;;;;17.75;100.00;97126.91;10295740;28;20081;-58
2022/08/23 04:22:00;;;;;;;29.58;18.00;;;;;;;17.74;100.00;97125.22;10295312;28;20034;-58
2022/08/23 04:26:59;;;;;;;30.45;17.45;;;;;;;17.67;100.00;97116.72;10295518;28;20057;-58
2022/08/23 04:31:58;;;;;;;35.63;19.73;;;;;;;17.49;100.00;97114.81;10294320;28;20049;-58
2022/08/23 04:36:58;;;;;;;30.80;19.17;;;;;;;17.64;100.00;97129.13;10263690;28;20559;-58
2022/08/23 04:47:14;;;;;;;36.20;24.08;;;;;;;17.63;100.00;97144.00;10271270;28;20057;-58
2022/08/23 04:52:13;;;;;;;34.28;25.70;;;;;;;17.63;100.00;97149.25;10293894;28;20065;-57
2022/08/23 04:57:14;;;;;;;27.52;17.38;;;;;;;17.73;100.00;97161.09;10288985;28;20551;-58
2022/08/23 05:02:13;;;;;;;24.65;13.10;;;;;;;17.84;100.00;97183.47;10293858;28;20069;-58
2022/08/23 05:07:13;;;;;;;21.40;13.00;;;;;;;17.94;100.00;97184.81;10303366;28;20049;-58
2022/08/23 05:12:13;;;;;;;22.80;12.27;;;;;;;18.06;100.00;97186.97;10288157;28;20088;-58
2022/08/23 05:17:12;;;;;;;20.17;11.90;;;;;;;18.20;100.00;97178.53;10292182;28;20034;-58
2022/08/23 05:22:11;;;;;;;23.55;11.25;;;;;;;18.31;100.00;97184.19;10292843;28;20040;-58
2022/08/23 05:27:10;;;;;;;17.98;11.70;;;;;;;18.37;100.00;97191.81;10292452;28;20469;-58
2022/08/23 05:32:09;;;;;;;16.67;10.93;;;;;;;18.48;100.00;97206.25;10292589;28;20081;-58
2022/08/23 05:37:08;;;;;;;14.68;9.85;;;;;;;18.63;100.00;97213.53;10290549;28;20041;-59
2022/08/23 05:42:11;;;;;;;20.08;10.57;;;;;;;18.79;100.00;97196.22;10291961;28;20059;-59
2022/08/23 05:47:13;;;;;;;18.63;9.90;;;;;;;19.01;100.00;97190.03;10291184;28;20073;-58
2022/08/23 05:52:13;;;;;;;17.38;10.38;;;;;;;19.21;100.00;97186.53;10291024;28;20559;-59
2022/08/23 05:57:12;;;;;;;18.70;10.00;;;;;;;19.32;100.00;97194.78;10289712;28;20069;-59
2022/08/23 06:02:11;;;;;;;17.45;11.40;;;;;;;19.34;100.00;97192.91;10278557;28;20038;-58
2022/08/23 06:07:10;;;;;;;17.30;11.18;;;;;;;19.31;100.00;97203.59;10289960;28;20030;-58
2022/08/23 06:12:09;;;;;;;18.38;10.90;;;;;;;19.26;100.00;97218.72;10289317;28;20069;-58
2022/08/23 06:17:09;;;;;;;18.90;12.45;;;;;;;19.36;100.00;97217.38;10289834;28;20026;-58
2022/08/23 06:22:08;;;;;;;16.67;10.85;;;;;;;19.52;100.00;97214.91;10287157;28;20061;-58
2022/08/23 06:27:07;;;;;;;14.85;9.23;;;;;;;19.73;100.00;97209.63;10288952;28;20464;-58
2022/08/23 06:32:07;;;;;;;17.23;11.27;;;;;;;19.90;100.00;97229.91;10291006;28;20492;-59
2022/08/23 06:37:13;;;;;;;17.73;10.40;;;;;;;19.94;100.00;97234.09;10258259;28;20121;-58
2022/08/23 06:42:15;;;;;;;21.70;10.68;;;;;;;20.13;100.00;97239.34;10279568;28;20077;-57
2022/08/23 06:47:14;;;;;;;13.00;9.18;;;;;;;20.39;100.00;97236.31;10287345;28;20073;-59
2022/08/23 06:52:13;;;;;;;13.73;8.50;;;;;;;20.55;100.00;97225.91;10289392;28;20033;-59
2022/08/23 06:57:13;;;;;;;14.77;8.98;;;;;;;20.34;98.31;97211.97;10290249;28;20072;-58
2022/08/23 07:02:13;;;;;;;12.10;9.13;;;;;;;20.49;97.84;97220.91;10291392;28;20088;-59
2022/08/23 07:07:13;;;;;;;14.88;8.75;;;;;;;20.32;93.42;97223.50;10290713;28;20672;-59
2022/08/23 07:12:12;;;;;;;10.38;8.30;;;;;;;20.23;93.40;97227.44;10290461;28;20076;-59
2022/08/23 07:17:11;;;;;;;11.45;7.65;;;;;;;20.42;93.38;97257.28;10290143;28;20030;-59
2022/08/23 07:22:10;;;;;;;9.52;6.93;;;;;;;20.51;90.25;97253.31;10290716;28;20032;-59
2022/08/23 07:27:11;;;;;;;11.68;6.38;;;;;;;20.65;89.05;97257.91;10290374;28;20062;-59
2022/08/23 07:32:10;;;;;;;9.35;7.05;;;;;;;20.89;86.98;97264.63;10289228;28;20069;-59
2022/08/23 07:37:09;;;;;;;10.20;6.25;;;;;;;21.02;85.26;97272.75;10289072;28;20053;-59
2022/08/23 07:42:08;;;;;;;8.90;6.45;;;;;;;21.38;83.91;97279.72;10290166;28;20036;-59
2022/08/23 07:47:07;;;;;;;7.10;5.40;;;;;;;21.69;81.10;97286.06;10290317;28;20444;-59
2022/08/23 07:52:07;;;;;;;7.38;6.38;;;;;;;21.99;80.12;97280.06;10290260;28;20507;-59
2022/08/23 07:57:06;;;;;;;8.73;6.47;;;;;;;;;;10289310;28;21164;-59
2022/08/23 08:02:05;;;;;;;8.88;5.75;;;;;;;21.86;76.83;97280.72;10289714;28;20704;-59
2022/08/23 08:07:04;;;;;;;8.18;5.80;;;;;;;22.06;78.07;97277.03;10289946;28;20064;-58
2022/08/23 08:12:04;;;;;;;6.28;4.43;;;;;;;22.22;72.99;97279.66;10289076;28;20052;-59
2022/08/23 08:17:03;;;;;;;7.05;5.53;;;;;;;22.51;73.44;97269.25;10289421;28;20058;-59
2022/08/23 08:22:02;;;;;;;11.32;7.25;;;;;;;22.95;76.46;97271.13;10289433;28;20069;-59
2022/08/23 08:27:01;;;;;;;7.80;5.18;;;;;;;22.94;71.35;97254.41;10268478;28;20087;-59
2022/08/23 08:32:00;;;;;;;9.65;6.13;;;;;;;23.39;72.47;97257.03;10288874;28;20472;-57
2022/08/23 08:36:59;;;;;;;8.15;5.97;;;;;;;23.94;71.34;97247.50;10289001;28;20104;-58
2022/08/23 08:42:13;;;;;;;7.57;5.85;;;;;;;24.33;68.00;97241.47;10289800;28;20096;-58
2022/08/23 08:47:49;;;;;;;9.32;5.72;;;;;;;24.05;65.00;97237.94;10295309;28;20065;-58
2022/08/23 08:53:12;;;;;;;6.45;4.82;;;;;;;23.94;63.84;97245.72;10291748;28;20057;-58
2022/08/23 08:58:18;;;;;;;8.70;4.80;;;;;;;23.80;63.46;97251.88;10251371;28;20089;-57
2022/08/23 09:03:20;;;;;;;6.68;4.88;;;;;;;23.67;64.57;97258.03;10263318;28;20050;-58
2022/08/23 09:08:37;;;;;;;9.25;5.50;;;;;;;23.98;63.80;97249.00;10295246;28;20065;-58
2022/08/23 09:13:52;;;;;;;7.97;4.60;;;;;;;23.87;59.65;97244.41;10295154;28;20061;-57
2022/08/23 09:18:53;;;;;;;6.22;4.43;;;;;;;24.11;59.15;97235.84;10295015;28;20062;-58
2022/08/23 09:23:52;;;;;;;5.22;4.05;;;;;;;24.47;58.26;97243.22;10295083;28;20073;-58
2022/08/23 09:28:59;;;;;;;9.90;5.22;;;;;;;24.68;56.44;97244.50;10295894;28;20045;-58
2022/08/23 09:33:57;;;;;;;5.47;4.30;;;;;;;24.75;54.17;97234.28;10294898;28;20077;-58
2022/08/23 09:39:00;;;;;;;7.35;4.43;;;;;;;24.69;54.55;97237.38;10261671;28;20120;-58
2022/08/23 09:44:02;;;;;;;7.30;4.30;;;;;;;24.98;55.44;97245.22;10251776;28;20078;-57
2022/08/23 09:49:28;;;;;;;7.32;4.50;;;;;;;25.28;56.49;97234.31;10253107;28;20061;-57
2022/08/23 09:54:35;;;;;;;7.57;4.93;;;;;;;25.56;53.48;97232.41;10277145;28;20566;-57
2022/08/23 09:59:41;;;;;;;5.70;4.32;;;;;;;25.61;52.95;97225.81;10291635;28;20092;-57
2022/08/23 10:04:45;;;;;;;7.35;4.78;;;;;;;25.48;53.37;97216.97;10291610;28;20061;-57
2022/08/23 10:09:44;;;;;;;8.38;4.70;;;;;;;25.19;55.23;97235.78;10288443;28;20069;-57
2022/08/23 10:14:44;;;;;;;6.47;5.13;;;;;;;25.26;56.21;97234.41;10288163;28;20037;-57
2022/08/23 10:20:20;;;;;;;5.90;4.68;;;;;;;25.46;56.88;97234.84;10288061;28;20061;-58
2022/08/23 10:25:57;;;;;;;7.90;5.43;;;;;;;26.10;56.68;97240.06;10289511;28;20069;-57
2022/08/23 10:31:04;;;;;;;8.45;5.28;;;;;;;26.23;55.74;97234.72;10290100;28;20076;-57
2022/08/23 10:36:18;;;;;;;9.68;5.78;;;;;;;26.10;58.12;97269.31;10276654;28;20117;-58
2022/08/23 10:41:27;;;;;;;9.82;6.00;;;;;;;25.26;62.52;97271.56;10253181;28;20522;-57
2022/08/23 10:46:29;;;;;;;11.90;7.50;;;;;;;24.39;65.27;97283.50;10253172;28;20870;-57
2022/08/23 10:51:35;;;;;;;9.98;6.80;;;;;;;23.79;66.46;97267.84;10252932;28;20057;-57
2022/08/23 10:56:35;;;;;;;6.55;5.43;;;;;;;23.81;67.98;97258.88;10251690;28;20137;-57
2022/08/23 11:02:02;;;;;;;12.82;8.38;;;;;;;24.00;68.82;97273.63;10252307;28;20076;-57
2022/08/23 11:07:15;;;;;;;9.13;6.65;;;;;;;24.15;69.17;97274.47;10270985;28;20092;-58
2022/08/23 11:12:19;;;;;;;9.75;6.32;;;;;;;23.87;69.12;97248.84;10289457;28;20049;-58
2022/08/23 11:17:39;;;;;;;19.13;14.70;;;;;;;23.91;70.03;97296.25;10289701;28;20061;-58
2022/08/23 11:22:56;;;;;;;9.30;6.22;;;;;;;23.37;70.44;97293.34;10291653;28;20606;-58
2022/08/23 11:28:26;;;;;;;10.07;6.28;;;;;;;23.10;73.54;97288.75;10291286;28;20064;-58
2022/08/23 11:33:40;;;;;;;10.23;6.65;;;;;;;22.89;75.99;97282.94;10290867;28;20562;-58
2022/08/23 11:38:42;;;;;;;10.13;6.80;;;;;;;22.63;77.86;97297.63;10252018;28;20508;-58
2022/08/23 11:44:06;;;;;;;10.95;6.97;;;;;;;22.44;80.44;97315.50;10248793;28;20487;-58
2022/08/23 11:49:15;;;;;;;14.20;8.10;;;;;;;22.32;83.21;97311.72;10242848;28;20069;-59
2022/08/23 11:54:38;;;;;;;11.02;8.10;;;;;;;22.23;84.55;97301.69;10245540;28;20073;-59
2022/08/23 11:59:50;;;;;;;10.20;8.30;;;;;;;22.10;85.20;97310.25;10243960;28;20480;-59
2022/08/23 12:04:52;;;;;;;11.75;8.32;;;;;;;22.02;85.58;97332.78;10245108;28;20066;-59
2022/08/23 12:09:53;;;;;;;11.57;8.43;;;;;;;21.96;87.13;97344.47;10247746;28;20185;-58
2022/08/23 12:14:58;;;;;;;13.95;8.52;;;;;;;21.79;88.77;97321.59;10248184;28;20490;-59
2022/08/23 12:20:07;;;;;;;18.13;9.65;;;;;;;21.14;92.79;97348.63;10252081;28;20081;-57
2022/08/23 12:25:07;;;;;;;19.42;10.02;;;;;;;20.65;96.12;97361.59;10256233;28;20069;-57
2022/08/23 12:30:28;;;;;;;29.95;12.57;;;;;;;20.12;98.57;97324.56;10254879;28;20488;-58
2022/08/23 12:35:56;;;;;;;23.05;11.75;;;;;;;19.83;100.00;97345.19;10254807;28;20085;-57
2022/08/23 12:40:55;;;;;;;21.92;11.65;;;;;;;19.71;100.00;97333.41;10246677;28;20085;-57
2022/08/23 12:45:59;;;;;;;19.42;11.75;;;;;;;19.54;100.00;97317.50;10255277;28;20061;-59
2022/08/23 12:51:02;;;;;;;19.30;12.68;;;;;;;19.71;100.00;97328.16;10254782;28;20070;-58
2022/08/23 12:56:07;;;;;;;15.45;10.95;;;;;;;20.11;100.00;97307.91;10253995;28;20138;-58
2022/08/23 13:01:18;;;;;;;14.77;10.13;;;;;;;20.73;100.00;97291.81;10254343;28;20058;-58
2022/08/23 13:06:33;;;;;;;12.98;10.43;;;;;;;21.21;100.00;97274.50;10278469;28;20069;-59
2022/08/23 13:11:35;;;;;;;13.73;10.52;;;;;;;21.55;100.00;97282.34;10294211;28;20057;-58
2022/08/23 13:16:34;;;;;;;11.45;7.53;;;;;;;21.91;100.00;97268.09;10293565;28;20084;-58
2022/08/23 13:21:33;;;;;;;10.68;7.72;;;;;;;22.06;99.42;97270.88;10293786;28;20053;-58
2022/08/23 13:26:40;;;;;;;12.07;7.75;;;;;;;22.27;98.11;97256.47;10292815;28;20025;-58
2022/08/23 13:32:01;;;;;;;10.18;7.40;;;;;;;22.64;95.07;97249.06;10292618;28;20088;-59
2022/08/23 13:37:03;;;;;;;9.80;6.45;;;;;;;22.82;91.36;97254.28;10272222;28;20103;-59
2022/08/23 13:42:02;;;;;;;9.27;7.25;;;;;;;22.75;85.16;97254.63;10253359;28;20088;-58
2022/08/23 13:47:01;;;;;;;9.40;6.10;;;;;;;22.91;84.95;97248.47;10252600;28;20607;-58
2022/08/23 13:52:01;;;;;;;7.85;6.53;;;;;;;22.97;81.94;97253.38;10268420;28;20068;-59
2022/08/23 13:57:11;;;;;;;8.68;6.20;;;;;;;22.90;81.01;97250.22;10292548;28;20088;-58
2022/08/23 14:02:14;;;;;;;9.65;7.43;;;;;;;22.75;82.13;97259.94;10291611;28;20057;-58
2022/08/23 14:07:14;;;;;;;9.50;6.80;;;;;;;22.49;80.89;97269.34;10291684;28;20068;-58
2022/08/23 14:12:23;;;;;;;9.43;7.07;;;;;;;22.50;82.33;97272.81;10291853;28;20073;-58
2022/08/23 14:17:22;;;;;;;8.80;7.38;;;;;;;22.59;82.50;97283.72;10290579;28;20088;-58
2022/08/23 14:22:21;;;;;;;9.90;7.20;;;;;;;22.73;82.70;97287.38;10289861;28;20053;-58
2022/08/23 14:27:20;;;;;;;11.27;7.68;;;;;;;22.69;80.55;97301.72;10290763;28;20034;-58
2022/08/23 14:32:19;;;;;;;9.05;6.07;;;;;;;22.80;78.69;97310.75;10291424;28;20042;-58
2022/08/23 14:37:17;;;;;;;6.68;5.40;;;;;;;23.05;75.34;97330.53;10269086;28;20095;-58
2022/08/23 14:42:20;;;;;;;8.48;6.65;;;;;;;23.33;75.88;97331.56;10249141;28;20034;-58
2022/08/23 14:47:19;;;;;;;7.88;5.63;;;;;;;23.49;73.76;97337.69;10250488;28;20069;-59
2022/08/23 14:52:18;;;;;;;6.43;5.70;;;;;;;23.38;72.12;97337.44;10249632;28;20045;-59
2022/08/23 14:57:18;;;;;;;9.65;5.90;;;;;;;23.23;74.15;97341.81;10250140;28;20069;-57
2022/08/23 15:02:22;;;;;;;9.18;6.72;;;;;;;23.25;75.00;97331.16;10278680;28;20075;-57
2022/08/23 15:07:21;;;;;;;10.00;6.72;;;;;;;23.22;77.25;97317.16;10288860;28;20483;-58
2022/08/23 15:12:22;;;;;;;10.43;6.70;;;;;;;23.51;77.72;97332.28;10281029;28;20609;-58
2022/08/23 15:17:21;;;;;;;8.45;6.60;;;;;;;23.65;76.87;97329.63;10277691;28;20089;-58
2022/08/23 15:22:20;;;;;;;11.13;7.28;;;;;;;23.63;76.57;97323.56;10244764;28;20077;-58
2022/08/23 15:27:21;;;;;;;10.05;7.13;;;;;;;23.61;76.22;97317.53;10250263;28;20066;-58
2022/08/23 15:32:20;;;;;;;10.60;7.07;;;;;;;23.52;76.67;97303.06;10260901;28;20120;-59
2022/08/23 15:37:20;;;;;;;12.90;7.57;;;;;;;23.49;76.81;97292.66;10266286;28;20046;-58
2022/08/23 15:42:19;;;;;;;11.15;7.70;;;;;;;23.31;77.11;97294.56;10266495;28;20100;-58
2022/08/23 15:47:35;;;;;;;10.70;7.50;;;;;;;23.13;77.45;97304.44;10288740;28;20073;-59
2022/08/23 15:52:34;;;;;;;9.70;7.57;;;;;;;23.13;78.45;97307.09;10288262;28;20073;-59
2022/08/23 15:57:43;;;;;;;11.00;7.55;;;;;;;22.97;78.25;97291.25;10282036;28;20034;-58
2022/08/23 16:02:42;;;;;;;13.47;9.40;;;;;;;22.99;79.09;97297.31;10285660;28;20144;-58
2022/08/23 16:07:42;;;;;;;13.15;8.23;;;;;;;22.93;79.70;97299.50;10292931;28;20081;-57
2022/08/23 16:12:41;;;;;;;10.45;7.50;;;;;;;22.92;80.13;97305.72;10294480;28;20076;-59
2022/08/23 16:17:40;;;;;;;12.38;7.78;;;;;;;22.90;80.75;97311.09;10296029;28;20061;-57
2022/08/23 16:22:39;;;;;;;11.50;8.73;;;;;;;22.72;81.18;97310.34;10296453;28;20061;-57
2022/08/23 16:27:38;;;;;;;17.80;9.45;;;;;;;22.60;82.15;97314.53;10271109;28;20100;-57
2022/08/23 16:32:37;;;;;;;11.88;9.15;;;;;;;22.51;82.48;97327.44;10257072;28;20045;-58
2022/08/23 16:37:36;;;;;;;13.65;9.25;;;;;;;22.40;83.47;97333.31;10260968;28;20050;-58
2022/08/23 16:42:35;;;;;;;11.77;9.23;;;;;;;22.29;83.97;97322.47;10257461;28;20070;-57
2022/08/23 16:47:40;;;;;;;13.85;9.70;;;;;;;22.23;84.72;97331.59;10257252;28;20042;-57
2022/08/23 16:52:39;;;;;;;13.45;9.80;;;;;;;22.13;85.38;97347.09;10285083;28;20088;-58
2022/08/23 16:57:39;;;;;;;14.63;9.93;;;;;;;22.02;86.25;97351.25;10296783;28;20145;-58
2022/08/23 17:02:39;;;;;;;17.05;10.43;;;;;;;21.92;87.43;97333.22;10293054;28;20092;-58
2022/08/23 17:07:38;;;;;;;14.82;10.98;;;;;;;21.86;88.47;97337.97;10285462;28;20594;-57
2022/08/23 17:12:41;;;;;;;14.40;11.52;;;;;;;21.71;89.29;97339.63;10262493;28;20315;-58
2022/08/23 17:17:42;;;;;;;16.23;11.55;;;;;;;21.63;90.17;97347.09;10253882;28;20062;-58
2022/08/23 17:22:41;;;;;;;16.20;11.48;;;;;;;21.49;90.92;97355.75;10264351;28;20073;-58
2022/08/23 17:27:42;;;;;;;20.42;11.10;;;;;;;21.41;91.23;97353.50;10327720;28;20037;-58
2022/08/23 17:32:42;;;;;;;16.13;11.20;;;;;;;21.28;91.77;97357.69;10333443;28;20296;-57
2022/08/23 17:37:41;;;;;;;23.00;11.88;;;;;;;21.16;92.30;97371.47;10288008;28;20169;-57
2022/08/23 17:42:41;;;;;;;15.80;11.75;;;;;;;21.07;92.94;97376.25;10292600;28;20091;-57
2022/08/23 17:47:40;;;;;;;17.23;11.02;;;;;;;20.97;93.67;97369.75;10291118;28;20526;-58
2022/08/23 17:52:40;;;;;;;15.32;11.65;;;;;;;20.95;93.88;97376.88;10286132;28;20061;-58
2022/08/23 17:57:39;;;;;;;25.48;15.07;;;;;;;20.87;94.20;97395.72;10286739;28;20164;-57
2022/08/23 18:02:39;;;;;;;28.70;16.52;;;;;;;20.78;94.59;97406.69;10266289;28;20484;-59
2022/08/23 18:07:38;;;;;;;18.83;13.82;;;;;;;20.72;95.07;97420.16;10270673;28;20057;-58
2022/08/23 18:12:39;;;;;;;21.30;12.70;;;;;;;20.68;95.38;97432.66;10288602;28;20077;-58
2022/08/23 18:17:38;;;;;;;20.33;13.35;;;;;;;20.66;95.82;97449.47;10288090;28;20471;-59
2022/08/23 18:22:38;;;;;;;18.05;13.27;;;;;;;20.64;96.17;97441.63;10274802;28;20069;-59
2022/08/23 18:32:56;;;;;;;23.52;14.43;;;;;;;20.74;96.42;97451.75;10258728;28;20061;-59
2022/08/23 18:37:56;;;;;;;17.98;13.93;;;;;;;20.78;96.56;97450.69;10268671;28;20081;-59
2022/08/23 18:42:56;;;;;;;20.67;13.63;;;;;;;20.78;96.77;97437.50;10284310;28;20077;-59
2022/08/23 18:47:55;;;;;;;30.20;14.88;;;;;;;20.77;97.00;97435.78;10289476;28;20072;-57
2022/08/23 18:52:54;;;;;;;21.08;12.98;;;;;;;20.69;96.94;97423.81;10265038;28;20034;-59
2022/08/23 18:57:53;;;;;;;20.02;13.13;;;;;;;20.66;97.30;97407.28;10275856;28;20480;-58
2022/08/23 19:02:52;;;;;;;19.13;11.07;;;;;;;20.54;97.66;97382.38;10278621;28;20394;-58
2022/08/23 19:07:51;;;;;;;17.55;10.90;;;;;;;20.41;97.37;97376.78;10278314;28;20092;-58
2022/08/23 19:12:50;;;;;;;15.20;10.80;;;;;;;20.25;97.57;97370.50;10277367;28;20049;-58
2022/08/23 19:17:52;;;;;;;14.90;10.77;;;;;;;20.19;97.31;97373.41;10268197;28;20116;-57
2022/08/23 19:22:52;;;;;;;17.98;10.77;;;;;;;20.13;97.32;97397.41;10288070;28;20076;-57
2022/08/23 19:27:51;;;;;;;16.10;10.80;;;;;;;20.07;97.61;97395.88;10252068;28;20488;-58
2022/08/23 19:32:50;;;;;;;13.65;10.77;;;;;;;20.04;97.80;97414.47;10262620;28;20729;-59
2022/08/23 19:37:49;;;;;;;16.75;11.05;;;;;;;20.05;97.85;97438.13;10262627;28;20053;-57
2022/08/23 19:42:48;;;;;;;17.35;12.02;;;;;;;20.07;98.60;97456.47;10263749;28;20042;-57
2022/08/23 19:47:47;;;;;;;19.08;12.52;;;;;;;19.94;99.84;97476.38;10286138;28;20482;-57
2022/08/23 19:52:46;;;;;;;24.75;13.35;;;;;;;19.89;100.00;97483.63;10286918;28;20419;-57
2022/08/23 19:57:45;;;;;;;19.92;13.23;;;;;;;19.93;100.00;97493.09;10283599;28;20041;-57
2022/08/23 20:02:44;;;;;;;19.90;13.88;;;;;;;19.99;100.00;97508.66;10284528;28;20045;-57
2022/08/23 20:07:43;;;;;;;22.42;13.95;;;;;;;20.04;100.00;97514.56;10285463;28;20125;-58
2022/08/23 20:12:42;;;;;;;20.90;14.13;;;;;;;20.06;100.00;97518.00;10285093;28;20061;-58
2022/08/23 20:17:41;;;;;;;20.35;13.30;;;;;;;20.14;100.00;97501.84;10287230;28;20037;-58
2022/08/23 20:27:58;;;;;;;18.48;13.77;;;;;;;20.28;100.00;97505.59;10287670;28;20064;-59
2022/08/23 20:32:57;;;;;;;17.67;13.27;;;;;;;20.35;100.00;97502.69;10287567;28;20057;-58
2022/08/23 20:37:56;;;;;;;20.42;14.02;;;;;;;20.35;100.00;97492.13;10265295;28;20468;-58
2022/08/23 20:42:55;;;;;;;21.77;15.05;;;;;;;20.31;100.00;97486.16;10262058;28;20029;-58
2022/08/23 20:47:54;;;;;;;19.15;14.35;;;;;;;20.19;100.00;97498.09;10294779;28;20567;-58
2022/08/23 20:52:53;;;;;;;19.75;14.20;;;;;;;20.17;100.00;97486.78;10294804;28;20391;-58
2022/08/23 20:57:52;;;;;;;20.00;13.38;;;;;;;20.17;100.00;97496.47;10294184;28;20030;-59
2022/08/23 21:02:51;;;;;;;21.13;13.95;;;;;;;20.16;100.00;97495.59;10294412;28;20057;-59
2022/08/23 21:07:50;;;;;;;22.48;14.00;;;;;;;20.17;100.00;97505.22;10293525;28;20018;-58
2022/08/23 21:12:49;;;;;;;19.60;13.40;;;;;;;20.14;100.00;97515.91;10291512;28;20547;-58
2022/08/23 21:17:48;;;;;;;19.88;13.25;;;;;;;20.19;100.00;97513.03;10294140;28;20088;-58
2022/08/23 21:22:47;;;;;;;16.13;13.02;;;;;;;20.07;100.00;97496.88;10293623;28;20426;-58
2022/08/23 21:27:46;;;;;;;19.15;12.95;;;;;;;20.04;100.00;97496.13;10293404;28;20057;-58
2022/08/23 21:32:45;;;;;;;20.38;13.70;;;;;;;20.04;100.00;97509.28;10292989;28;20037;-58
2022/08/23 21:37:44;;;;;;;16.95;11.70;;;;;;;19.83;100.00;97505.78;10273587;28;20401;-58
2022/08/23 21:42:45;;;;;;;18.77;11.77;;;;;;;19.73;100.00;97517.66;10252062;28;20503;-57
2022/08/23 21:47:44;;;;;;;18.05;12.68;;;;;;;19.63;100.00;97525.94;10285086;28;20092;-57
2022/08/23 21:52:45;;;;;;;18.10;13.18;;;;;;;19.71;100.00;97549.28;10291423;28;20479;-58
2022/08/23 21:57:45;;;;;;;19.50;13.73;;;;;;;19.84;100.00;97560.19;10291219;28;20133;-57
2022/08/23 22:02:44;;;;;;;20.63;13.30;;;;;;;19.91;100.00;97564.28;10291074;28;20081;-57
2022/08/23 22:07:43;;;;;;;19.45;12.23;;;;;;;19.72;100.00;97558.91;10291719;28;20084;-56
2022/08/23 22:12:42;;;;;;;19.30;10.10;;;;;;;19.09;100.00;97560.50;10292502;28;20026;-56
2022/08/23 22:17:41;;;;;;;16.73;10.25;;;;;;;18.25;100.00;97549.53;10288215;28;20116;-58
2022/08/23 22:22:42;;;;;;;17.45;10.32;;;;;;;17.49;100.00;97522.28;10288298;28;20073;-58
2022/08/23 22:27:41;;;;;;;15.73;10.27;;;;;;;17.04;100.00;97524.59;10288768;28;20575;-58
2022/08/23 22:32:40;;;;;;;12.65;9.13;;;;;;;16.87;100.00;97536.47;10288188;28;20066;-58
2022/08/23 22:37:42;;;;;;;16.50;9.60;;;;;;;16.85;100.00;97532.16;10270088;28;20092;-58
2022/08/23 22:42:41;;;;;;;14.77;10.30;;;;;;;16.73;100.00;97510.63;10250225;28;20061;-58
2022/08/23 22:47:40;;;;;;;16.83;10.70;;;;;;;16.68;100.00;97511.69;10284170;28;20525;-58
2022/08/23 22:52:39;;;;;;;17.70;10.77;;;;;;;16.78;100.00;97499.16;10289608;28;20040;-58
2022/08/23 22:57:38;;;;;;;;;;;;;;;16.81;100.00;97478.97;10290673;28;20042;-58
2022/08/23 23:02:37;;;;;;;15.93;9.17;;;;;;;16.62;100.00;97468.16;10288880;28;19915;-58
2022/08/23 23:12:54;;;;;;;18.40;10.18;;;;;;;16.23;100.00;97441.38;10290409;28;20073;-58
2022/08/23 23:17:53;;;;;;;16.17;9.95;;;;;;;16.25;100.00;97416.00;10286422;28;20088;-58
2022/08/23 23:22:52;;;;;;;15.48;9.10;;;;;;;16.09;100.00;97416.47;10288818;28;20034;-58